Matanuska — WN4201 — position and weather

sailwx.info

Track history (hours):
 
Tides and Currents Weather Stations Pressure Air Temp Water Temp Dewpoint Dewpoint Depression Visibility Wind Speed Wind Dir Waves Ship Positions

Matanuska

Owner: ALASKA MARINE HIGHWAY SYSTEM DEPARTMENT OF TRANSPORTATION, Anchorage, AK. More information available from US FCC via Universal Licensing System and Coast Guard Vessel Documentation Center.

Last reported at 2019-Nov-19 10:51 UTC. Time now 2019-Nov-20 09:20 UTC.
Position N 54°34' W 130°40'.

Type: Passenger vessel. MMSI: 338195000.

Date/timePositionNaut miles runAvg speedWind from/ knotsBaromVisibWave heightAir tempDewpointWater temp
2019-Nov-19 10:51N 54°34' W 130°40'3518.8
2019-Nov-19 09:00N 54°03' W 130°15'10515.0
2019-Nov-19 02:00N 52°39' W 128°28'10 4.2
2019-Nov-18 23:30N 52°29' W 128°27'1313.1
2019-Nov-18 22:31N 52°16' W 128°31'919.0
2019-Nov-18 22:01N 52°14' W 128°15'713.1
2019-Nov-18 21:30N 52°11' W 128°06'1 1.5
2019-Nov-18 20:30N 52°12' W 128°08'3 5.2
2019-Nov-18 20:01N 52°10' W 128°08'2 4.6
2019-Nov-18 19:31N 52°07' W 128°08'5415.3
2019-Nov-18 16:00N 51°14' W 127°55'1019.3
2019-Nov-18 15:30N 51°07' W 127°46'10617.7
2019-Nov-18 09:30N 50°12' W 125°22'7218.1
2019-Nov-18 05:30N 49°24' W 123°58'1019.2
2019-Nov-18 05:01N 49°19' W 123°46'1919.1
2019-Nov-18 04:00N 49°05' W 123°25'1918.9
2019-Nov-18 03:01N 48°53' W 123°03'1818.5
2019-Nov-18 02:01N 48°41' W 122°42'8 7.4
2019-Nov-18 00:56N 48°43' W 122°31'0 0.0
2019-Nov-17 23:20N 48°43' W 122°31'0 0.0
2019-Nov-17 22:50N 48°43' W 122°31'0 0.0
2019-Nov-17 22:00N 48°43' W 122°31'0 0.0
2019-Nov-17 19:57N 48°43' W 122°31'0 0.0
2019-Nov-17 17:21N 48°43' W 122°31'0 0.0
2019-Nov-17 16:57N 48°43' W 122°31'53 5.6
2019-Nov-17 07:30N 48°11' W 123°35'4 1.4
2019-Nov-17 04:30N 48°14' W 123°40'1 2.6
2019-Nov-17 04:00N 48°13' W 123°42'612.5
2019-Nov-17 03:30N 48°13' W 123°51'18 9.1
2019-Nov-17 01:30N 48°23' W 124°14'131 6.0
2019-Nov-16 03:30N 46°14' W 123°44'2 3.8
2019-Nov-16 02:58N 46°13' W 123°47'714.0
2019-Nov-16 02:29N 46°16' W 123°38'31 7.9
2019-Nov-15 22:30N 46°05' W 122°55'33 4.6
2019-Nov-15 15:30N 45°34' W 122°43'0 0.0
2019-Nov-15 13:00N 45°34' W 122°43'0 0.0
2019-Nov-15 12:00N 45°34' W 122°43'0 0.0
2019-Nov-15 09:30N 45°34' W 122°43'0 0.0
2019-Nov-15 08:30N 45°34' W 122°43'0 0.0
2019-Nov-15 06:42N 45°34' W 122°43'0 0.0
2019-Nov-15 04:30N 45°34' W 122°43'0 0.0
2019-Nov-15 03:30N 45°34' W 122°43'0 0.0
2019-Nov-14 10:10N 45°34' W 122°43'0 0.0
2019-Nov-14 06:28N 45°34' W 122°43'0 0.0
2019-Nov-14 01:55N 45°34' W 122°43'0 0.0
2019-Nov-13 14:27N 45°34' W 122°43'0 0.0
2019-Nov-13 13:54N 45°34' W 122°43'0 0.0
2019-Nov-13 12:21N 45°34' W 122°43'0 0.0
2019-Nov-13 11:27N 45°34' W 122°43'0 0.0
2019-Nov-13 09:51N 45°34' W 122°43'0 0.0
2019-Nov-13 09:21N 45°34' W 122°43'0 0.0
2019-Nov-13 08:03N 45°34' W 122°43'0 0.0
2019-Nov-13 05:45N 45°34' W 122°43'0 0.0
2019-Nov-13 02:51N 45°34' W 122°43'0 0.0
2019-Nov-13 02:27N 45°34' W 122°43'0 0.0
2019-Nov-13 01:45N 45°34' W 122°43'0 0.0
2019-Nov-12 15:18N 45°34' W 122°43'0 0.0
2019-Nov-12 15:00N 45°34' W 122°43'0 0.0
2019-Nov-12 13:57N 45°34' W 122°43'0 0.0
2019-Nov-12 13:24N 45°34' W 122°43'0 0.0
2019-Nov-12 12:57N 45°34' W 122°43'0 0.0
2019-Nov-12 11:33N 45°34' W 122°43'0 0.0
2019-Nov-12 11:30N 45°34' W 122°43'0 0.0
2019-Nov-12 09:57N 45°34' W 122°43'0 0.0
2019-Nov-12 08:48N 45°34' W 122°43'0 0.0
2019-Nov-12 07:06N 45°34' W 122°43'0 0.0
2019-Nov-12 05:57N 45°34' W 122°43'0 0.0
2019-Nov-12 03:27N 45°34' W 122°43'0 0.0
2019-Nov-12 02:09N 45°34' W 122°43'0 0.0
2019-Nov-11 18:15N 45°34' W 122°43'0 0.0
2019-Nov-11 11:57N 45°34' W 122°43'0 0.0
2019-Nov-11 08:57N 45°34' W 122°43'0 0.0
2019-Nov-11 05:03N 45°34' W 122°43'0 0.0
2019-Nov-11 03:21N 45°34' W 122°43'0 0.0
2019-Nov-11 01:57N 45°34' W 122°43'0 0.0
2019-Nov-11 00:33N 45°34' W 122°43'0 0.0
2019-Nov-10 08:45N 45°34' W 122°43'0 0.0
2019-Nov-10 05:57N 45°34' W 122°43'0 0.0
2019-Nov-10 03:33N 45°34' W 122°43'0 0.0
2019-Nov-10 00:57N 45°34' W 122°43'0 0.0
2019-Nov-09 15:03N 45°34' W 122°43'  
Track history (hours):
 
Tides and Currents Weather Stations Pressure Air Temp Water Temp Dewpoint Dewpoint Depression Visibility Wind Speed Wind Dir Waves Ship Positions

Matanuska

Owner: ALASKA MARINE HIGHWAY SYSTEM DEPARTMENT OF TRANSPORTATION, Anchorage, AK. More information available from US FCC via Universal Licensing System and Coast Guard Vessel Documentation Center.

Last reported at 2019-Nov-19 10:51 UTC. Time now 2019-Nov-20 09:20 UTC.
Position N 54°34' W 130°40'.

Type: Passenger vessel. MMSI: 338195000.

Date/timePositionNaut miles runAvg speedWind from/ knotsBaromVisibWave heightAir tempDewpointWater temp
2019-Nov-19 10:51N 54°34' W 130°40'3518.8
2019-Nov-19 09:00N 54°03' W 130°15'10515.0
2019-Nov-19 02:00N 52°39' W 128°28'10 4.2
2019-Nov-18 23:30N 52°29' W 128°27'1313.1
2019-Nov-18 22:31N 52°16' W 128°31'919.0
2019-Nov-18 22:01N 52°14' W 128°15'713.1
2019-Nov-18 21:30N 52°11' W 128°06'1 1.5
2019-Nov-18 20:30N 52°12' W 128°08'3 5.2
2019-Nov-18 20:01N 52°10' W 128°08'2 4.6
2019-Nov-18 19:31N 52°07' W 128°08'5415.3
2019-Nov-18 16:00N 51°14' W 127°55'1019.3
2019-Nov-18 15:30N 51°07' W 127°46'10617.7
2019-Nov-18 09:30N 50°12' W 125°22'7218.1
2019-Nov-18 05:30N 49°24' W 123°58'1019.2
2019-Nov-18 05:01N 49°19' W 123°46'1919.1
2019-Nov-18 04:00N 49°05' W 123°25'1918.9
2019-Nov-18 03:01N 48°53' W 123°03'1818.5
2019-Nov-18 02:01N 48°41' W 122°42'8 7.4
2019-Nov-18 00:56N 48°43' W 122°31'0 0.0
2019-Nov-17 23:20N 48°43' W 122°31'0 0.0
2019-Nov-17 22:50N 48°43' W 122°31'0 0.0
2019-Nov-17 22:00N 48°43' W 122°31'0 0.0
2019-Nov-17 19:57N 48°43' W 122°31'0 0.0
2019-Nov-17 17:21N 48°43' W 122°31'0 0.0
2019-Nov-17 16:57N 48°43' W 122°31'53 5.6
2019-Nov-17 07:30N 48°11' W 123°35'4 1.4
2019-Nov-17 04:30N 48°14' W 123°40'1 2.6
2019-Nov-17 04:00N 48°13' W 123°42'612.5
2019-Nov-17 03:30N 48°13' W 123°51'18 9.1
2019-Nov-17 01:30N 48°23' W 124°14'131 6.0
2019-Nov-16 03:30N 46°14' W 123°44'2 3.8
2019-Nov-16 02:58N 46°13' W 123°47'714.0
2019-Nov-16 02:29N 46°16' W 123°38'31 7.9
2019-Nov-15 22:30N 46°05' W 122°55'33 4.6
2019-Nov-15 15:30N 45°34' W 122°43'0 0.0
2019-Nov-15 13:00N 45°34' W 122°43'0 0.0
2019-Nov-15 12:00N 45°34' W 122°43'0 0.0
2019-Nov-15 09:30N 45°34' W 122°43'0 0.0
2019-Nov-15 08:30N 45°34' W 122°43'0 0.0
2019-Nov-15 06:42N 45°34' W 122°43'0 0.0
2019-Nov-15 04:30N 45°34' W 122°43'0 0.0
2019-Nov-15 03:30N 45°34' W 122°43'0 0.0
2019-Nov-14 10:10N 45°34' W 122°43'0 0.0
2019-Nov-14 06:28N 45°34' W 122°43'0 0.0
2019-Nov-14 01:55N 45°34' W 122°43'0 0.0
2019-Nov-13 14:27N 45°34' W 122°43'0 0.0
2019-Nov-13 13:54N 45°34' W 122°43'0 0.0
2019-Nov-13 12:21N 45°34' W 122°43'0 0.0
2019-Nov-13 11:27N 45°34' W 122°43'0 0.0
2019-Nov-13 09:51N 45°34' W 122°43'0 0.0
2019-Nov-13 09:21N 45°34' W 122°43'0 0.0
2019-Nov-13 08:03N 45°34' W 122°43'0 0.0
2019-Nov-13 05:45N 45°34' W 122°43'0 0.0
2019-Nov-13 02:51N 45°34' W 122°43'0 0.0
2019-Nov-13 02:27N 45°34' W 122°43'0 0.0
2019-Nov-13 01:45N 45°34' W 122°43'0 0.0
2019-Nov-12 15:18N 45°34' W 122°43'0 0.0
2019-Nov-12 15:00N 45°34' W 122°43'0 0.0
2019-Nov-12 13:57N 45°34' W 122°43'0 0.0
2019-Nov-12 13:24N 45°34' W 122°43'0 0.0
2019-Nov-12 12:57N 45°34' W 122°43'0 0.0
2019-Nov-12 11:33N 45°34' W 122°43'0 0.0
2019-Nov-12 11:30N 45°34' W 122°43'0 0.0
2019-Nov-12 09:57N 45°34' W 122°43'0 0.0
2019-Nov-12 08:48N 45°34' W 122°43'0 0.0
2019-Nov-12 07:06N 45°34' W 122°43'0 0.0
2019-Nov-12 05:57N 45°34' W 122°43'0 0.0
2019-Nov-12 03:27N 45°34' W 122°43'0 0.0
2019-Nov-12 02:09N 45°34' W 122°43'0 0.0
2019-Nov-11 18:15N 45°34' W 122°43'0 0.0
2019-Nov-11 11:57N 45°34' W 122°43'0 0.0
2019-Nov-11 08:57N 45°34' W 122°43'0 0.0
2019-Nov-11 05:03N 45°34' W 122°43'0 0.0
2019-Nov-11 03:21N 45°34' W 122°43'0 0.0
2019-Nov-11 01:57N 45°34' W 122°43'0 0.0
2019-Nov-11 00:33N 45°34' W 122°43'0 0.0
2019-Nov-10 08:45N 45°34' W 122°43'0 0.0
2019-Nov-10 05:57N 45°34' W 122°43'0 0.0
2019-Nov-10 03:33N 45°34' W 122°43'0 0.0
2019-Nov-10 00:57N 45°34' W 122°43'0 0.0
2019-Nov-09 15:03N 45°34' W 122°43'  

Dump ship's entire track history